createdAt,value
2023-04-16T00:01:28.797Z,90.58
2023-04-16T00:06:32.245Z,90.50
2023-04-16T00:11:35.045Z,90.49
2023-04-16T00:16:38.723Z,90.50
2023-04-16T00:21:41.729Z,90.60
2023-04-16T00:26:46.390Z,90.62
2023-04-16T00:31:49.304Z,90.68
2023-04-16T00:36:52.299Z,90.82
2023-04-16T00:41:55.227Z,90.84
2023-04-16T00:46:59.618Z,91.06
2023-04-16T00:52:03.459Z,91.00
2023-04-16T00:57:06.631Z,91.15
2023-04-16T01:02:09.675Z,91.20
2023-04-16T01:07:12.726Z,91.26
2023-04-16T01:12:15.687Z,91.31
2023-04-16T01:17:18.543Z,91.32
2023-04-16T01:22:21.375Z,91.33
2023-04-16T01:27:24.199Z,91.28
2023-04-16T01:32:27.113Z,91.29
2023-04-16T01:37:31.055Z,91.28
2023-04-16T01:42:33.912Z,91.29
2023-04-16T01:47:37.015Z,91.18
2023-04-16T01:52:40.082Z,91.26
2023-04-16T01:57:43.006Z,91.30
2023-04-16T02:02:46.933Z,91.35
2023-04-16T02:07:50.094Z,91.40
2023-04-16T02:12:52.920Z,91.55
2023-04-16T02:17:57.353Z,91.64
2023-04-16T02:23:00.620Z,91.68
2023-04-16T02:28:03.560Z,91.73
2023-04-16T02:33:08.715Z,91.79
2023-04-16T02:38:11.636Z,91.81
2023-04-16T02:43:14.603Z,91.86
2023-04-16T02:48:17.546Z,91.93
2023-04-16T02:53:21.517Z,91.97
2023-04-16T02:58:26.513Z,92.07
2023-04-16T03:03:29.431Z,92.00
2023-04-16T03:08:32.306Z,92.04
2023-04-16T03:13:35.331Z,92.00
2023-04-16T03:18:38.154Z,91.86
2023-04-16T03:23:41.059Z,91.75
2023-04-16T03:28:43.870Z,91.76
2023-04-16T03:33:46.746Z,91.82
2023-04-16T03:38:50.711Z,91.79
2023-04-16T03:43:53.696Z,91.96
2023-04-16T03:48:56.471Z,92.13
2023-04-16T03:53:59.363Z,92.24
2023-04-16T03:59:02.205Z,92.22
2023-04-16T04:04:05.163Z,92.39
2023-04-16T04:09:08.421Z,92.51
2023-04-16T04:14:11.576Z,92.54
2023-04-16T04:19:14.386Z,92.39
2023-04-16T04:24:17.282Z,92.29
2023-04-16T04:29:20.320Z,92.18
2023-04-16T04:34:23.160Z,92.13
2023-04-16T04:39:26.322Z,92.10
2023-04-16T04:44:29.107Z,91.98
2023-04-16T04:49:32.082Z,92.04
2023-04-16T04:54:34.924Z,92.06
2023-04-16T04:59:37.807Z,92.00
2023-04-16T05:04:40.701Z,91.82
2023-04-16T05:09:43.653Z,91.82
2023-04-16T05:14:46.518Z,91.89
2023-04-16T05:19:49.428Z,91.59
2023-04-16T05:24:52.306Z,91.68
2023-04-16T05:29:55.456Z,91.60
2023-04-16T05:34:58.850Z,91.41
2023-04-16T05:40:01.747Z,91.32
2023-04-16T05:45:07.044Z,91.25
2023-04-16T05:50:10.884Z,91.26
2023-04-16T05:55:13.952Z,91.13
2023-04-16T06:00:17.167Z,90.68
2023-04-16T06:05:20.345Z,90.39
2023-04-16T06:10:23.433Z,90.45
2023-04-16T06:15:26.387Z,90.48
2023-04-16T06:20:29.718Z,90.36
2023-04-16T06:25:32.621Z,90.32
2023-04-16T06:30:35.796Z,90.50
2023-04-16T06:35:38.638Z,90.32
2023-04-16T06:40:41.760Z,90.20
2023-04-16T06:45:44.658Z,89.73
2023-04-16T06:50:47.578Z,89.25
2023-04-16T06:55:50.634Z,88.84
2023-04-16T07:00:53.529Z,88.72
2023-04-16T07:05:57.157Z,88.86
2023-04-16T07:11:00.366Z,88.26
2023-04-16T07:16:03.382Z,88.15
2023-04-16T07:21:06.564Z,86.93
2023-04-16T07:26:09.797Z,87.32
2023-04-16T07:31:12.884Z,86.76
2023-04-16T07:36:15.865Z,87.07
2023-04-16T07:41:18.761Z,87.14
2023-04-16T07:46:22.219Z,86.36
2023-04-16T07:51:26.262Z,85.96
2023-04-16T07:56:29.144Z,86.46
2023-04-16T08:01:33.115Z,86.36
2023-04-16T08:06:36.068Z,85.73
2023-04-16T08:11:38.915Z,85.23
2023-04-16T08:16:41.995Z,84.92
2023-04-16T08:21:45.547Z,84.51
2023-04-16T08:26:48.418Z,84.07
2023-04-16T08:31:51.408Z,84.95
2023-04-16T08:36:54.522Z,85.06
2023-04-16T08:41:59.617Z,85.43
2023-04-16T08:47:05.349Z,85.85
2023-04-16T08:52:14.891Z,85.93
2023-04-16T08:57:20.756Z,86.35
2023-04-16T09:02:26.998Z,86.69
2023-04-16T09:07:31.352Z,86.10
2023-04-16T09:12:35.864Z,86.06
2023-04-16T09:17:39.954Z,86.34
2023-04-16T09:22:43.815Z,86.56
2023-04-16T09:27:51.066Z,86.15
2023-04-16T09:33:13.219Z,86.00
2023-04-16T09:38:17.225Z,84.92
2023-04-16T09:43:21.057Z,85.03
2023-04-16T09:48:32.816Z,85.15
2023-04-16T09:53:36.164Z,82.79
2023-04-16T09:58:39.351Z,83.76
2023-04-16T10:03:43.073Z,83.53
2023-04-16T10:08:52.955Z,82.83
2023-04-16T10:13:55.811Z,83.46
2023-04-16T10:18:59.216Z,83.71
2023-04-16T10:24:03.414Z,83.68
2023-04-16T10:29:07.832Z,83.99
2023-04-16T10:34:11.441Z,83.25
2023-04-16T10:39:20.825Z,83.10
2023-04-16T10:44:25.060Z,83.29
2023-04-16T10:49:27.958Z,83.89
2023-04-16T10:54:32.205Z,83.46
2023-04-16T10:59:39.920Z,83.48
2023-04-16T11:04:46.214Z,83.28
2023-04-16T11:10:07.368Z,83.26
2023-04-16T11:15:13.670Z,82.94
2023-04-16T11:20:25.688Z,83.08
2023-04-16T11:25:31.727Z,82.82
2023-04-16T11:30:38.157Z,83.14
2023-04-16T11:35:41.561Z,83.26
2023-04-16T11:40:44.695Z,83.88
2023-04-16T11:46:12.967Z,84.18
2023-04-16T11:51:20.687Z,84.32
2023-04-16T11:56:35.871Z,84.33
2023-04-16T12:01:41.663Z,83.82
2023-04-16T12:07:14.354Z,83.87
2023-04-16T12:12:31.692Z,83.36
2023-04-16T12:17:36.522Z,83.79
2023-04-16T12:22:47.773Z,83.72
2023-04-16T12:27:56.053Z,83.84
2023-04-16T12:33:21.242Z,83.75
2023-04-16T12:38:25.718Z,84.10
2023-04-16T12:43:28.953Z,84.14
2023-04-16T12:48:32.651Z,84.25
2023-04-16T12:53:35.681Z,83.87
2023-04-16T12:58:38.762Z,83.72
2023-04-16T13:03:42.903Z,83.76
2023-04-16T13:08:46.733Z,83.36
2023-04-16T13:13:49.587Z,83.30
2023-04-16T13:18:52.567Z,83.36
2023-04-16T13:23:55.567Z,82.97
2023-04-16T13:28:58.538Z,82.97
2023-04-16T13:34:01.529Z,83.27
2023-04-16T13:39:05.505Z,83.46
2023-04-16T13:44:08.360Z,83.15
2023-04-16T13:49:11.571Z,82.89
2023-04-16T13:54:14.751Z,82.99
2023-04-16T13:59:18.684Z,83.14
2023-04-16T14:04:22.530Z,83.31
2023-04-16T14:09:25.838Z,82.50
2023-04-16T14:14:28.799Z,82.31
2023-04-16T14:19:31.666Z,82.79
2023-04-16T14:24:34.520Z,82.76
2023-04-16T14:29:37.475Z,82.42
2023-04-16T14:34:40.599Z,82.12
2023-04-16T14:39:43.629Z,80.77
2023-04-16T14:44:46.551Z,80.71
2023-04-16T14:49:49.501Z,80.28
2023-04-16T14:54:52.636Z,80.61
2023-04-16T14:59:55.549Z,81.19
2023-04-16T15:04:59.841Z,81.39
2023-04-16T15:10:03.225Z,81.51
2023-04-16T15:15:09.987Z,81.57
2023-04-16T15:20:13.596Z,81.83
2023-04-16T15:25:16.611Z,82.07
2023-04-16T15:30:19.748Z,82.22
2023-04-16T15:35:22.718Z,82.57
2023-04-16T15:40:25.764Z,82.67
2023-04-16T15:45:28.709Z,82.70
2023-04-16T15:50:31.944Z,82.72
2023-04-16T15:55:35.907Z,82.63
2023-04-16T16:00:39.341Z,82.38
2023-04-16T16:05:42.323Z,82.65
2023-04-16T16:10:45.309Z,82.89
2023-04-16T16:15:48.261Z,82.93
2023-04-16T16:20:57.329Z,83.24
2023-04-16T16:26:00.356Z,83.33
2023-04-16T16:31:07.365Z,83.47
2023-04-16T16:36:11.731Z,83.53
2023-04-16T16:41:14.695Z,83.41
2023-04-16T16:46:17.672Z,83.42
2023-04-16T16:51:20.712Z,83.37
2023-04-16T16:56:23.573Z,83.46
2023-04-16T17:01:27.195Z,83.54
2023-04-16T17:06:30.338Z,83.58
2023-04-16T17:11:33.406Z,83.61
2023-04-16T17:16:36.819Z,83.64
2023-04-16T17:21:39.888Z,83.70
2023-04-16T17:26:42.850Z,83.82
2023-04-16T17:31:45.869Z,84.00
2023-04-16T17:36:52.088Z,84.01
2023-04-16T17:41:58.634Z,84.18
2023-04-16T17:47:02.320Z,84.25
2023-04-16T17:52:05.777Z,84.33
2023-04-16T17:57:08.868Z,84.43
2023-04-16T18:02:12.285Z,84.64
2023-04-16T18:07:15.875Z,84.64
2023-04-16T18:12:19.196Z,84.69
2023-04-16T18:17:23.367Z,84.76
2023-04-16T18:22:28.491Z,84.82
2023-04-16T18:27:31.966Z,84.96
2023-04-16T18:32:35.562Z,84.94
2023-04-16T18:37:40.449Z,84.93
2023-04-16T18:42:43.464Z,85.09
2023-04-16T18:47:47.887Z,85.08
2023-04-16T18:52:50.996Z,85.36
2023-04-16T18:57:55.346Z,85.44
2023-04-16T19:02:58.264Z,85.51
2023-04-16T19:08:01.544Z,85.62
2023-04-16T19:13:06.371Z,85.83
2023-04-16T19:18:11.446Z,85.83
2023-04-16T19:23:15.404Z,85.92
2023-04-16T19:28:19.288Z,86.09
2023-04-16T19:33:22.340Z,86.28
2023-04-16T19:38:25.616Z,86.29
2023-04-16T19:43:30.982Z,86.43
2023-04-16T19:48:34.047Z,86.43
2023-04-16T19:53:37.645Z,86.53
2023-04-16T19:58:41.730Z,86.54
2023-04-16T20:03:44.926Z,86.55
2023-04-16T20:08:48.197Z,86.47
2023-04-16T20:13:51.054Z,86.43
2023-04-16T20:18:56.987Z,86.48
2023-04-16T20:24:00.735Z,86.58
2023-04-16T20:29:03.925Z,86.68
2023-04-16T20:34:07.771Z,86.99
2023-04-16T20:39:11.292Z,87.19
2023-04-16T20:44:18.369Z,87.29
2023-04-16T20:49:21.241Z,87.30
2023-04-16T20:54:24.099Z,87.42
2023-04-16T20:59:27.075Z,87.53
2023-04-16T21:04:30.360Z,87.57
2023-04-16T21:09:33.416Z,87.64
2023-04-16T21:14:36.496Z,87.77
2023-04-16T21:19:40.303Z,87.79
2023-04-16T21:24:43.190Z,87.79
2023-04-16T21:29:46.070Z,88.02
2023-04-16T21:34:48.873Z,88.00
2023-04-16T21:39:51.752Z,87.94
2023-04-16T21:44:54.580Z,87.92
2023-04-16T21:49:57.458Z,88.00
2023-04-16T21:55:01.199Z,88.13
2023-04-16T22:00:09.326Z,88.21
2023-04-16T22:05:12.702Z,88.35
2023-04-16T22:10:15.827Z,88.33
2023-04-16T22:15:18.678Z,88.21
2023-04-16T22:20:22.515Z,88.18
2023-04-16T22:25:25.852Z,88.36
2023-04-16T22:30:28.811Z,88.40
2023-04-16T22:35:31.690Z,88.40
2023-04-16T22:40:34.568Z,88.26
2023-04-16T22:45:37.546Z,88.32
2023-04-16T22:50:48.913Z,88.43
2023-04-16T22:55:51.866Z,88.79
2023-04-16T23:00:56.774Z,88.84
2023-04-16T23:05:59.742Z,88.79
2023-04-16T23:11:02.606Z,88.92
2023-04-16T23:16:06.303Z,89.02
2023-04-16T23:21:09.233Z,89.15
2023-04-16T23:26:12.171Z,89.25
2023-04-16T23:31:15.151Z,89.11
2023-04-16T23:36:18.191Z,88.99
2023-04-16T23:41:23.345Z,88.86
2023-04-16T23:46:26.332Z,89.04
2023-04-16T23:51:29.211Z,89.06
2023-04-16T23:56:32.080Z,89.07
